sensor_id;sensor_type;location;lat;lon;timestamp;P1;durP1;ratioP1;P2;durP2;ratioP2
45296;SDS011;31040;51.622;10.420;2022-08-21T00:00:47;3.45;;;3.15;;
45296;SDS011;31040;51.622;10.420;2022-08-21T00:03:15;5.22;;;3.22;;
45296;SDS011;31040;51.622;10.420;2022-08-21T00:05:47;4.60;;;3.13;;
45296;SDS011;31040;51.622;10.420;2022-08-21T00:08:16;3.63;;;3.00;;
45296;SDS011;31040;51.622;10.420;2022-08-21T00:10:44;3.67;;;3.38;;
45296;SDS011;31040;51.622;10.420;2022-08-21T00:13:12;3.28;;;3.08;;
45296;SDS011;31040;51.622;10.420;2022-08-21T00:15:43;3.28;;;2.88;;
45296;SDS011;31040;51.622;10.420;2022-08-21T00:18:11;3.25;;;2.92;;
45296;SDS011;31040;51.622;10.420;2022-08-21T00:20:39;2.97;;;2.60;;
45296;SDS011;31040;51.622;10.420;2022-08-21T00:23:07;3.88;;;3.15;;
45296;SDS011;31040;51.622;10.420;2022-08-21T00:25:35;3.05;;;2.85;;
45296;SDS011;31040;51.622;10.420;2022-08-21T00:28:03;4.13;;;3.50;;
45296;SDS011;31040;51.622;10.420;2022-08-21T00:30:32;3.25;;;3.00;;
45296;SDS011;31040;51.622;10.420;2022-08-21T00:33:00;4.00;;;3.10;;
45296;SDS011;31040;51.622;10.420;2022-08-21T00:35:30;4.05;;;3.75;;
45296;SDS011;31040;51.622;10.420;2022-08-21T00:37:58;3.65;;;3.33;;
45296;SDS011;31040;51.622;10.420;2022-08-21T00:40:28;2.90;;;2.70;;
45296;SDS011;31040;51.622;10.420;2022-08-21T00:42:56;4.30;;;3.47;;
45296;SDS011;31040;51.622;10.420;2022-08-21T00:45:23;3.08;;;2.88;;
45296;SDS011;31040;51.622;10.420;2022-08-21T00:47:51;3.60;;;3.30;;
45296;SDS011;31040;51.622;10.420;2022-08-21T00:50:22;4.45;;;3.10;;
45296;SDS011;31040;51.622;10.420;2022-08-21T00:52:50;3.65;;;3.35;;
45296;SDS011;31040;51.622;10.420;2022-08-21T00:55:19;3.42;;;3.13;;
45296;SDS011;31040;51.622;10.420;2022-08-21T00:57:49;3.35;;;3.15;;
45296;SDS011;31040;51.622;10.420;2022-08-21T01:00:20;4.32;;;3.55;;
45296;SDS011;31040;51.622;10.420;2022-08-21T01:02:47;3.20;;;2.97;;
45296;SDS011;31040;51.622;10.420;2022-08-21T01:05:15;4.05;;;3.72;;
45296;SDS011;31040;51.622;10.420;2022-08-21T01:07:43;3.55;;;2.80;;
45296;SDS011;31040;51.622;10.420;2022-08-21T01:10:11;3.50;;;3.20;;
45296;SDS011;31040;51.622;10.420;2022-08-21T01:12:50;7.20;;;4.60;;
45296;SDS011;31040;51.622;10.420;2022-08-21T01:15:17;3.90;;;3.60;;
45296;SDS011;31040;51.622;10.420;2022-08-21T01:17:47;3.03;;;2.72;;
45296;SDS011;31040;51.622;10.420;2022-08-21T01:20:15;3.67;;;3.38;;
45296;SDS011;31040;51.622;10.420;2022-08-21T01:22:42;3.97;;;3.63;;
45296;SDS011;31040;51.622;10.420;2022-08-21T01:25:13;3.83;;;3.42;;
45296;SDS011;31040;51.622;10.420;2022-08-21T01:27:41;4.43;;;3.35;;
45296;SDS011;31040;51.622;10.420;2022-08-21T01:30:28;3.75;;;3.42;;
45296;SDS011;31040;51.622;10.420;2022-08-21T01:32:55;3.60;;;3.30;;
45296;SDS011;31040;51.622;10.420;2022-08-21T01:35:24;4.50;;;3.78;;
45296;SDS011;31040;51.622;10.420;2022-08-21T01:37:51;4.07;;;3.70;;
45296;SDS011;31040;51.622;10.420;2022-08-21T01:40:18;3.55;;;3.25;;
45296;SDS011;31040;51.622;10.420;2022-08-21T01:42:46;3.67;;;3.33;;
45296;SDS011;31040;51.622;10.420;2022-08-21T01:45:15;3.72;;;3.33;;
45296;SDS011;31040;51.622;10.420;2022-08-21T01:47:43;3.47;;;3.05;;
45296;SDS011;31040;51.622;10.420;2022-08-21T01:50:11;3.72;;;3.42;;
45296;SDS011;31040;51.622;10.420;2022-08-21T01:52:39;3.90;;;3.42;;
45296;SDS011;31040;51.622;10.420;2022-08-21T01:55:07;3.67;;;3.38;;
45296;SDS011;31040;51.622;10.420;2022-08-21T01:57:36;3.60;;;3.30;;
45296;SDS011;31040;51.622;10.420;2022-08-21T02:00:04;4.03;;;3.70;;
45296;SDS011;31040;51.622;10.420;2022-08-21T02:02:32;3.20;;;2.90;;
45296;SDS011;31040;51.622;10.420;2022-08-21T02:04:59;3.60;;;3.30;;
45296;SDS011;31040;51.622;10.420;2022-08-21T02:07:26;3.67;;;3.38;;
45296;SDS011;31040;51.622;10.420;2022-08-21T02:09:54;3.60;;;3.30;;
45296;SDS011;31040;51.622;10.420;2022-08-21T02:12:22;3.50;;;3.20;;
45296;SDS011;31040;51.622;10.420;2022-08-21T02:14:50;3.63;;;3.33;;
45296;SDS011;31040;51.622;10.420;2022-08-21T02:17:17;3.25;;;2.70;;
45296;SDS011;31040;51.622;10.420;2022-08-21T02:19:45;4.05;;;3.65;;
45296;SDS011;31040;51.622;10.420;2022-08-21T02:22:12;3.33;;;3.05;;
45296;SDS011;31040;51.622;10.420;2022-08-21T02:24:42;3.70;;;3.40;;
45296;SDS011;31040;51.622;10.420;2022-08-21T02:27:20;5.05;;;3.53;;
45296;SDS011;31040;51.622;10.420;2022-08-21T02:29:52;2.97;;;2.78;;
45296;SDS011;31040;51.622;10.420;2022-08-21T02:32:19;3.88;;;3.28;;
45296;SDS011;31040;51.622;10.420;2022-08-21T02:34:47;3.75;;;3.08;;
45296;SDS011;31040;51.622;10.420;2022-08-21T02:37:15;3.67;;;3.38;;
45296;SDS011;31040;51.622;10.420;2022-08-21T02:39:42;4.15;;;3.60;;
45296;SDS011;31040;51.622;10.420;2022-08-21T02:42:10;4.15;;;3.60;;
45296;SDS011;31040;51.622;10.420;2022-08-21T02:44:37;3.72;;;3.30;;
45296;SDS011;31040;51.622;10.420;2022-08-21T02:47:05;3.60;;;3.30;;
45296;SDS011;31040;51.622;10.420;2022-08-21T02:49:32;3.40;;;3.20;;
45296;SDS011;31040;51.622;10.420;2022-08-21T02:51:59;3.83;;;3.20;;
45296;SDS011;31040;51.622;10.420;2022-08-21T02:54:27;3.83;;;3.53;;
45296;SDS011;31040;51.622;10.420;2022-08-21T02:56:54;3.58;;;3.28;;
45296;SDS011;31040;51.622;10.420;2022-08-21T02:59:21;4.20;;;3.90;;
45296;SDS011;31040;51.622;10.420;2022-08-21T03:01:49;3.65;;;3.35;;
45296;SDS011;31040;51.622;10.420;2022-08-21T03:04:16;5.07;;;3.90;;
45296;SDS011;31040;51.622;10.420;2022-08-21T03:06:44;4.07;;;3.78;;
45296;SDS011;31040;51.622;10.420;2022-08-21T03:09:11;3.92;;;3.63;;
45296;SDS011;31040;51.622;10.420;2022-08-21T03:11:39;3.53;;;3.22;;
45296;SDS011;31040;51.622;10.420;2022-08-21T03:14:06;4.10;;;3.78;;
45296;SDS011;31040;51.622;10.420;2022-08-21T03:16:34;4.43;;;3.45;;
45296;SDS011;31040;51.622;10.420;2022-08-21T03:19:02;4.40;;;3.72;;
45296;SDS011;31040;51.622;10.420;2022-08-21T03:21:29;4.07;;;3.78;;
45296;SDS011;31040;51.622;10.420;2022-08-21T03:23:56;5.05;;;4.18;;
45296;SDS011;31040;51.622;10.420;2022-08-21T03:26:29;4.05;;;3.65;;
45296;SDS011;31040;51.622;10.420;2022-08-21T03:28:57;4.00;;;3.70;;
45296;SDS011;31040;51.622;10.420;2022-08-21T03:31:24;4.05;;;3.65;;
45296;SDS011;31040;51.622;10.420;2022-08-21T03:33:57;4.40;;;4.00;;
45296;SDS011;31040;51.622;10.420;2022-08-21T03:36:25;4.38;;;3.97;;
45296;SDS011;31040;51.622;10.420;2022-08-21T03:38:52;4.18;;;3.80;;
45296;SDS011;31040;51.622;10.420;2022-08-21T03:41:20;4.22;;;3.83;;
45296;SDS011;31040;51.622;10.420;2022-08-21T03:43:47;4.10;;;3.78;;
45296;SDS011;31040;51.622;10.420;2022-08-21T03:46:14;3.83;;;3.53;;
45296;SDS011;31040;51.622;10.420;2022-08-21T03:48:42;5.07;;;3.80;;
45296;SDS011;31040;51.622;10.420;2022-08-21T03:51:09;6.22;;;4.68;;
45296;SDS011;31040;51.622;10.420;2022-08-21T03:53:37;4.15;;;3.85;;
45296;SDS011;31040;51.622;10.420;2022-08-21T03:56:07;4.22;;;3.72;;
45296;SDS011;31040;51.622;10.420;2022-08-21T03:58:34;6.15;;;4.07;;
45296;SDS011;31040;51.622;10.420;2022-08-21T04:01:02;4.68;;;4.05;;
45296;SDS011;31040;51.622;10.420;2022-08-21T04:03:30;4.53;;;3.97;;
45296;SDS011;31040;51.622;10.420;2022-08-21T04:05:58;4.32;;;3.92;;
45296;SDS011;31040;51.622;10.420;2022-08-21T04:08:25;4.10;;;3.70;;
45296;SDS011;31040;51.622;10.420;2022-08-21T04:10:54;4.35;;;3.95;;
45296;SDS011;31040;51.622;10.420;2022-08-21T04:13:22;4.72;;;3.80;;
45296;SDS011;31040;51.622;10.420;2022-08-21T04:15:49;5.55;;;4.10;;
45296;SDS011;31040;51.622;10.420;2022-08-21T04:18:17;4.25;;;3.85;;
45296;SDS011;31040;51.622;10.420;2022-08-21T04:20:45;5.90;;;4.22;;
45296;SDS011;31040;51.622;10.420;2022-08-21T04:23:16;4.47;;;4.07;;
45296;SDS011;31040;51.622;10.420;2022-08-21T04:25:49;4.75;;;4.22;;
45296;SDS011;31040;51.622;10.420;2022-08-21T04:28:17;5.10;;;4.68;;
45296;SDS011;31040;51.622;10.420;2022-08-21T04:30:44;5.57;;;4.80;;
45296;SDS011;31040;51.622;10.420;2022-08-21T04:33:12;5.55;;;4.85;;
45296;SDS011;31040;51.622;10.420;2022-08-21T04:35:39;3.97;;;3.67;;
45296;SDS011;31040;51.622;10.420;2022-08-21T04:38:08;4.85;;;3.85;;
45296;SDS011;31040;51.622;10.420;2022-08-21T04:40:35;4.50;;;4.05;;
45296;SDS011;31040;51.622;10.420;2022-08-21T04:43:04;5.20;;;4.18;;
45296;SDS011;31040;51.622;10.420;2022-08-21T04:45:39;4.03;;;3.67;;
45296;SDS011;31040;51.622;10.420;2022-08-21T04:50:43;5.30;;;4.80;;
45296;SDS011;31040;51.622;10.420;2022-08-21T04:53:13;5.32;;;4.15;;
45296;SDS011;31040;51.622;10.420;2022-08-21T04:55:41;4.30;;;3.97;;
45296;SDS011;31040;51.622;10.420;2022-08-21T04:58:10;4.53;;;3.80;;
45296;SDS011;31040;51.622;10.420;2022-08-21T05:00:38;4.20;;;3.80;;
45296;SDS011;31040;51.622;10.420;2022-08-21T05:03:07;4.35;;;3.95;;
45296;SDS011;31040;51.622;10.420;2022-08-21T05:05:34;4.40;;;3.92;;
45296;SDS011;31040;51.622;10.420;2022-08-21T05:08:02;4.78;;;4.13;;
45296;SDS011;31040;51.622;10.420;2022-08-21T05:10:30;4.90;;;4.03;;
45296;SDS011;31040;51.622;10.420;2022-08-21T05:12:59;4.72;;;4.25;;
45296;SDS011;31040;51.622;10.420;2022-08-21T05:15:27;4.63;;;4.10;;
45296;SDS011;31040;51.622;10.420;2022-08-21T05:17:56;4.45;;;4.05;;
45296;SDS011;31040;51.622;10.420;2022-08-21T05:20:27;23.38;;;5.70;;
45296;SDS011;31040;51.622;10.420;2022-08-21T05:22:55;10.18;;;4.70;;
45296;SDS011;31040;51.622;10.420;2022-08-21T05:25:23;6.50;;;4.82;;
45296;SDS011;31040;51.622;10.420;2022-08-21T05:27:53;4.95;;;4.45;;
45296;SDS011;31040;51.622;10.420;2022-08-21T05:30:23;6.22;;;4.13;;
45296;SDS011;31040;51.622;10.420;2022-08-21T05:32:55;4.68;;;4.20;;
45296;SDS011;31040;51.622;10.420;2022-08-21T05:35:23;3.78;;;3.47;;
45296;SDS011;31040;51.622;10.420;2022-08-21T05:37:50;5.75;;;4.30;;
45296;SDS011;31040;51.622;10.420;2022-08-21T05:40:17;5.10;;;4.03;;
45296;SDS011;31040;51.622;10.420;2022-08-21T05:42:49;4.15;;;3.75;;
45296;SDS011;31040;51.622;10.420;2022-08-21T05:45:25;4.28;;;3.88;;
45296;SDS011;31040;51.622;10.420;2022-08-21T05:48:22;4.53;;;4.13;;
45296;SDS011;31040;51.622;10.420;2022-08-21T05:50:50;4.35;;;3.95;;
45296;SDS011;31040;51.622;10.420;2022-08-21T05:53:18;5.18;;;4.15;;
45296;SDS011;31040;51.622;10.420;2022-08-21T05:55:46;5.05;;;3.60;;
45296;SDS011;31040;51.622;10.420;2022-08-21T05:58:14;3.70;;;3.40;;
45296;SDS011;31040;51.622;10.420;2022-08-21T06:00:43;4.07;;;3.78;;
45296;SDS011;31040;51.622;10.420;2022-08-21T06:03:12;4.95;;;3.78;;
45296;SDS011;31040;51.622;10.420;2022-08-21T06:05:39;4.53;;;3.13;;
45296;SDS011;31040;51.622;10.420;2022-08-21T06:08:07;4.18;;;3.70;;
45296;SDS011;31040;51.622;10.420;2022-08-21T06:10:34;3.58;;;3.17;;
45296;SDS011;31040;51.622;10.420;2022-08-21T06:13:02;7.20;;;3.83;;
45296;SDS011;31040;51.622;10.420;2022-08-21T06:15:29;4.00;;;3.40;;
45296;SDS011;31040;51.622;10.420;2022-08-21T06:17:57;3.78;;;3.17;;
45296;SDS011;31040;51.622;10.420;2022-08-21T06:20:24;7.07;;;3.85;;
45296;SDS011;31040;51.622;10.420;2022-08-21T06:22:52;3.75;;;2.88;;
45296;SDS011;31040;51.622;10.420;2022-08-21T06:25:19;4.25;;;3.30;;
45296;SDS011;31040;51.622;10.420;2022-08-21T06:27:49;4.18;;;3.03;;
45296;SDS011;31040;51.622;10.420;2022-08-21T06:30:17;3.47;;;3.17;;
45296;SDS011;31040;51.622;10.420;2022-08-21T06:32:44;3.92;;;3.30;;
45296;SDS011;31040;51.622;10.420;2022-08-21T06:35:12;3.42;;;2.90;;
45296;SDS011;31040;51.622;10.420;2022-08-21T06:37:39;3.30;;;2.70;;
45296;SDS011;31040;51.622;10.420;2022-08-21T06:40:07;5.30;;;2.80;;
45296;SDS011;31040;51.622;10.420;2022-08-21T06:42:38;3.00;;;2.75;;
45296;SDS011;31040;51.622;10.420;2022-08-21T06:45:09;3.33;;;3.05;;
45296;SDS011;31040;51.622;10.420;2022-08-21T06:47:37;6.72;;;3.28;;
45296;SDS011;31040;51.622;10.420;2022-08-21T06:50:06;3.63;;;2.85;;
45296;SDS011;31040;51.622;10.420;2022-08-21T06:52:38;4.35;;;2.72;;
45296;SDS011;31040;51.622;10.420;2022-08-21T06:55:07;3.85;;;2.88;;
45296;SDS011;31040;51.622;10.420;2022-08-21T06:57:34;2.50;;;2.30;;
45296;SDS011;31040;51.622;10.420;2022-08-21T07:00:05;2.90;;;2.70;;
45296;SDS011;31040;51.622;10.420;2022-08-21T07:02:35;3.08;;;2.50;;
45296;SDS011;31040;51.622;10.420;2022-08-21T07:05:06;3.67;;;2.63;;
45296;SDS011;31040;51.622;10.420;2022-08-21T07:07:44;3.28;;;2.47;;
45296;SDS011;31040;51.622;10.420;2022-08-21T07:10:13;3.55;;;2.42;;
45296;SDS011;31040;51.622;10.420;2022-08-21T07:12:49;3.53;;;2.88;;
45296;SDS011;31040;51.622;10.420;2022-08-21T07:15:29;2.88;;;2.25;;
45296;SDS011;31040;51.622;10.420;2022-08-21T07:17:58;4.53;;;2.85;;
45296;SDS011;31040;51.622;10.420;2022-08-21T07:20:27;6.63;;;2.92;;
45296;SDS011;31040;51.622;10.420;2022-08-21T07:23:00;3.70;;;2.72;;
45296;SDS011;31040;51.622;10.420;2022-08-21T07:25:29;3.88;;;3.00;;
45296;SDS011;31040;51.622;10.420;2022-08-21T07:27:56;5.22;;;3.17;;
45296;SDS011;31040;51.622;10.420;2022-08-21T07:30:25;4.15;;;3.60;;
45296;SDS011;31040;51.622;10.420;2022-08-21T07:32:54;6.03;;;4.63;;
45296;SDS011;31040;51.622;10.420;2022-08-21T07:35:28;5.88;;;4.32;;
45296;SDS011;31040;51.622;10.420;2022-08-21T07:37:57;5.80;;;4.40;;
45296;SDS011;31040;51.622;10.420;2022-08-21T07:40:38;6.72;;;5.78;;
45296;SDS011;31040;51.622;10.420;2022-08-21T07:43:40;6.28;;;5.30;;
45296;SDS011;31040;51.622;10.420;2022-08-21T07:46:18;6.13;;;5.55;;
45296;SDS011;31040;51.622;10.420;2022-08-21T07:48:53;7.55;;;5.70;;
45296;SDS011;31040;51.622;10.420;2022-08-21T07:51:27;7.63;;;6.80;;
45296;SDS011;31040;51.622;10.420;2022-08-21T07:54:04;8.43;;;7.53;;
45296;SDS011;31040;51.622;10.420;2022-08-21T07:56:43;8.10;;;7.30;;
45296;SDS011;31040;51.622;10.420;2022-08-21T07:59:16;8.95;;;8.05;;
45296;SDS011;31040;51.622;10.420;2022-08-21T08:01:54;9.85;;;8.80;;
45296;SDS011;31040;51.622;10.420;2022-08-21T08:04:26;9.35;;;8.38;;
45296;SDS011;31040;51.622;10.420;2022-08-21T08:06:59;12.48;;;9.40;;
45296;SDS011;31040;51.622;10.420;2022-08-21T08:09:35;8.48;;;7.45;;
45296;SDS011;31040;51.622;10.420;2022-08-21T08:12:18;10.60;;;9.55;;
45296;SDS011;31040;51.622;10.420;2022-08-21T08:14:57;12.00;;;9.23;;
45296;SDS011;31040;51.622;10.420;2022-08-21T08:17:31;11.13;;;9.02;;
45296;SDS011;31040;51.622;10.420;2022-08-21T08:20:05;9.40;;;7.75;;
45296;SDS011;31040;51.622;10.420;2022-08-21T08:25:14;8.70;;;7.85;;
45296;SDS011;31040;51.622;10.420;2022-08-21T08:27:49;8.02;;;6.75;;
45296;SDS011;31040;51.622;10.420;2022-08-21T08:30:24;8.30;;;7.25;;
45296;SDS011;31040;51.622;10.420;2022-08-21T08:32:59;8.90;;;7.25;;
45296;SDS011;31040;51.622;10.420;2022-08-21T08:35:33;7.05;;;6.20;;
45296;SDS011;31040;51.622;10.420;2022-08-21T08:38:09;6.80;;;6.10;;
45296;SDS011;31040;51.622;10.420;2022-08-21T08:43:17;5.93;;;4.63;;
45296;SDS011;31040;51.622;10.420;2022-08-21T08:45:55;6.75;;;6.05;;
45296;SDS011;31040;51.622;10.420;2022-08-21T08:49:06;5.03;;;4.57;;
45296;SDS011;31040;51.622;10.420;2022-08-21T08:51:55;6.57;;;3.63;;
45296;SDS011;31040;51.622;10.420;2022-08-21T08:55:04;4.43;;;3.13;;
45296;SDS011;31040;51.622;10.420;2022-08-21T08:58:29;4.47;;;3.38;;
45296;SDS011;31040;51.622;10.420;2022-08-21T09:01:20;5.63;;;3.30;;
45296;SDS011;31040;51.622;10.420;2022-08-21T09:04:09;5.65;;;3.50;;
45296;SDS011;31040;51.622;10.420;2022-08-21T09:07:09;6.25;;;3.35;;
45296;SDS011;31040;51.622;10.420;2022-08-21T09:15:58;5.78;;;3.08;;
45296;SDS011;31040;51.622;10.420;2022-08-21T09:29:21;3.15;;;2.85;;
45296;SDS011;31040;51.622;10.420;2022-08-21T09:31:50;7.55;;;3.47;;
45296;SDS011;31040;51.622;10.420;2022-08-21T09:34:29;2.70;;;2.45;;
45296;SDS011;31040;51.622;10.420;2022-08-21T09:37:00;4.35;;;2.90;;
45296;SDS011;31040;51.622;10.420;2022-08-21T09:39:30;7.07;;;3.80;;
45296;SDS011;31040;51.622;10.420;2022-08-21T09:42:08;7.38;;;3.55;;
45296;SDS011;31040;51.622;10.420;2022-08-21T09:44:38;7.53;;;3.70;;
45296;SDS011;31040;51.622;10.420;2022-08-21T09:47:11;6.55;;;4.05;;
45296;SDS011;31040;51.622;10.420;2022-08-21T09:49:41;10.65;;;3.97;;
45296;SDS011;31040;51.622;10.420;2022-08-21T09:52:20;8.75;;;4.75;;
45296;SDS011;31040;51.622;10.420;2022-08-21T09:54:53;5.95;;;3.75;;
45296;SDS011;31040;51.622;10.420;2022-08-21T09:57:31;6.20;;;4.00;;
45296;SDS011;31040;51.622;10.420;2022-08-21T10:00:26;11.20;;;3.88;;
45296;SDS011;31040;51.622;10.420;2022-08-21T10:03:18;6.53;;;4.10;;
45296;SDS011;31040;51.622;10.420;2022-08-21T10:06:08;6.45;;;3.83;;
45296;SDS011;31040;51.622;10.420;2022-08-21T10:08:38;8.30;;;4.45;;
45296;SDS011;31040;51.622;10.420;2022-08-21T10:11:13;6.00;;;4.20;;
45296;SDS011;31040;51.622;10.420;2022-08-21T10:16:26;7.93;;;4.97;;
45296;SDS011;31040;51.622;10.420;2022-08-21T10:24:29;6.45;;;4.50;;
45296;SDS011;31040;51.622;10.420;2022-08-21T10:35:41;6.85;;;4.18;;
45296;SDS011;31040;51.622;10.420;2022-08-21T10:38:52;9.18;;;3.97;;
45296;SDS011;31040;51.622;10.420;2022-08-21T10:49:57;8.73;;;4.60;;
45296;SDS011;31040;51.622;10.420;2022-08-21T10:52:46;7.72;;;4.30;;
45296;SDS011;31040;51.622;10.420;2022-08-21T10:55:20;9.40;;;4.95;;
45296;SDS011;31040;51.622;10.420;2022-08-21T10:58:08;8.23;;;5.18;;
45296;SDS011;31040;51.622;10.420;2022-08-21T11:00:39;7.20;;;4.80;;
45296;SDS011;31040;51.622;10.420;2022-08-21T11:03:16;9.55;;;4.78;;
45296;SDS011;31040;51.622;10.420;2022-08-21T11:05:54;5.70;;;3.70;;
45296;SDS011;31040;51.622;10.420;2022-08-21T11:10:52;8.38;;;4.30;;
45296;SDS011;31040;51.622;10.420;2022-08-21T11:18:47;7.70;;;4.03;;
45296;SDS011;31040;51.622;10.420;2022-08-21T11:23:54;6.95;;;3.88;;
45296;SDS011;31040;51.622;10.420;2022-08-21T11:26:28;7.18;;;4.00;;
45296;SDS011;31040;51.622;10.420;2022-08-21T11:29:04;7.70;;;3.78;;
45296;SDS011;31040;51.622;10.420;2022-08-21T11:31:47;5.65;;;3.60;;
45296;SDS011;31040;51.622;10.420;2022-08-21T11:36:51;6.25;;;3.88;;
45296;SDS011;31040;51.622;10.420;2022-08-21T11:39:25;5.07;;;3.78;;
45296;SDS011;31040;51.622;10.420;2022-08-21T11:47:39;5.28;;;3.60;;
45296;SDS011;31040;51.622;10.420;2022-08-21T11:50:16;6.22;;;3.80;;
45296;SDS011;31040;51.622;10.420;2022-08-21T11:55:39;5.75;;;3.63;;
45296;SDS011;31040;51.622;10.420;2022-08-21T12:00:56;5.32;;;3.40;;
45296;SDS011;31040;51.622;10.420;2022-08-21T12:06:00;4.53;;;3.25;;
45296;SDS011;31040;51.622;10.420;2022-08-21T12:10:59;4.00;;;2.90;;
45296;SDS011;31040;51.622;10.420;2022-08-21T12:13:29;5.05;;;3.53;;
45296;SDS011;31040;51.622;10.420;2022-08-21T12:16:12;6.07;;;3.10;;
45296;SDS011;31040;51.622;10.420;2022-08-21T12:18:41;4.35;;;3.20;;
45296;SDS011;31040;51.622;10.420;2022-08-21T12:21:25;5.72;;;3.00;;
45296;SDS011;31040;51.622;10.420;2022-08-21T12:24:00;5.13;;;3.15;;
45296;SDS011;31040;51.622;10.420;2022-08-21T12:26:35;3.78;;;2.70;;
45296;SDS011;31040;51.622;10.420;2022-08-21T12:29:16;3.78;;;2.60;;
45296;SDS011;31040;51.622;10.420;2022-08-21T12:31:51;2.90;;;2.55;;
45296;SDS011;31040;51.622;10.420;2022-08-21T12:34:18;3.67;;;2.75;;
45296;SDS011;31040;51.622;10.420;2022-08-21T12:36:48;9.82;;;3.13;;
45296;SDS011;31040;51.622;10.420;2022-08-21T12:39:24;8.90;;;3.00;;
45296;SDS011;31040;51.622;10.420;2022-08-21T12:44:41;4.97;;;3.20;;
45296;SDS011;31040;51.622;10.420;2022-08-21T12:47:15;5.78;;;3.20;;
45296;SDS011;31040;51.622;10.420;2022-08-21T12:49:48;5.45;;;3.00;;
45296;SDS011;31040;51.622;10.420;2022-08-21T12:52:28;5.40;;;2.63;;
45296;SDS011;31040;51.622;10.420;2022-08-21T12:55:02;4.63;;;3.08;;
45296;SDS011;31040;51.622;10.420;2022-08-21T12:57:30;3.45;;;2.70;;
45296;SDS011;31040;51.622;10.420;2022-08-21T12:59:59;5.00;;;2.58;;
45296;SDS011;31040;51.622;10.420;2022-08-21T13:02:35;3.03;;;2.45;;
45296;SDS011;31040;51.622;10.420;2022-08-21T13:05:04;4.63;;;2.40;;
45296;SDS011;31040;51.622;10.420;2022-08-21T13:07:33;2.58;;;2.38;;
45296;SDS011;31040;51.622;10.420;2022-08-21T13:10:04;4.00;;;2.40;;
45296;SDS011;31040;51.622;10.420;2022-08-21T13:12:32;4.35;;;2.40;;
45296;SDS011;31040;51.622;10.420;2022-08-21T13:15:02;5.88;;;2.50;;
45296;SDS011;31040;51.622;10.420;2022-08-21T13:17:35;4.17;;;2.60;;
45296;SDS011;31040;51.622;10.420;2022-08-21T13:20:19;4.32;;;2.40;;
45296;SDS011;31040;51.622;10.420;2022-08-21T13:22:46;3.13;;;2.63;;
45296;SDS011;31040;51.622;10.420;2022-08-21T13:25:15;3.58;;;2.58;;
45296;SDS011;31040;51.622;10.420;2022-08-21T13:27:44;10.57;;;2.97;;
45296;SDS011;31040;51.622;10.420;2022-08-21T13:30:17;4.28;;;2.88;;
45296;SDS011;31040;51.622;10.420;2022-08-21T13:32:47;9.07;;;3.15;;
45296;SDS011;31040;51.622;10.420;2022-08-21T13:35:19;3.53;;;2.85;;
45296;SDS011;31040;51.622;10.420;2022-08-21T13:37:47;3.95;;;2.20;;
45296;SDS011;31040;51.622;10.420;2022-08-21T13:40:58;4.63;;;2.53;;
45296;SDS011;31040;51.622;10.420;2022-08-21T13:43:10;2.38;;;2.00;;
45296;SDS011;31040;51.622;10.420;2022-08-21T13:45:38;2.78;;;2.05;;
45296;SDS011;31040;51.622;10.420;2022-08-21T13:48:06;1.95;;;1.75;;
45296;SDS011;31040;51.622;10.420;2022-08-21T13:50:33;2.72;;;1.73;;
45296;SDS011;31040;51.622;10.420;2022-08-21T13:53:04;4.03;;;2.55;;
45296;SDS011;31040;51.622;10.420;2022-08-21T13:55:42;10.40;;;2.70;;
45296;SDS011;31040;51.622;10.420;2022-08-21T13:58:10;4.13;;;2.22;;
45296;SDS011;31040;51.622;10.420;2022-08-21T14:00:45;2.60;;;1.80;;
45296;SDS011;31040;51.622;10.420;2022-08-21T14:03:15;2.00;;;1.48;;
45296;SDS011;31040;51.622;10.420;2022-08-21T14:05:50;6.95;;;1.70;;
45296;SDS011;31040;51.622;10.420;2022-08-21T14:10:55;2.20;;;1.90;;
45296;SDS011;31040;51.622;10.420;2022-08-21T14:13:28;3.72;;;1.98;;
45296;SDS011;31040;51.622;10.420;2022-08-21T14:16:00;2.47;;;2.28;;
45296;SDS011;31040;51.622;10.420;2022-08-21T14:18:28;2.83;;;2.13;;
45296;SDS011;31040;51.622;10.420;2022-08-21T14:21:04;2.60;;;1.75;;
45296;SDS011;31040;51.622;10.420;2022-08-21T14:23:31;3.50;;;1.33;;
45296;SDS011;31040;51.622;10.420;2022-08-21T14:26:00;2.03;;;1.50;;
45296;SDS011;31040;51.622;10.420;2022-08-21T14:28:34;2.65;;;1.80;;
45296;SDS011;31040;51.622;10.420;2022-08-21T14:31:13;3.22;;;1.80;;
45296;SDS011;31040;51.622;10.420;2022-08-21T14:33:41;1.90;;;1.67;;
45296;SDS011;31040;51.622;10.420;2022-08-21T14:36:09;2.67;;;1.67;;
45296;SDS011;31040;51.622;10.420;2022-08-21T14:38:38;2.92;;;1.83;;
45296;SDS011;31040;51.622;10.420;2022-08-21T14:41:21;2.40;;;1.75;;
45296;SDS011;31040;51.622;10.420;2022-08-21T14:43:50;2.38;;;2.00;;
45296;SDS011;31040;51.622;10.420;2022-08-21T14:46:34;5.10;;;1.92;;
45296;SDS011;31040;51.622;10.420;2022-08-21T14:49:20;3.15;;;1.90;;
45296;SDS011;31040;51.622;10.420;2022-08-21T14:51:48;2.03;;;1.45;;
45296;SDS011;31040;51.622;10.420;2022-08-21T14:54:19;1.52;;;1.42;;
45296;SDS011;31040;51.622;10.420;2022-08-21T14:56:56;4.00;;;1.92;;
45296;SDS011;31040;51.622;10.420;2022-08-21T14:59:23;4.18;;;1.85;;
45296;SDS011;31040;51.622;10.420;2022-08-21T15:01:52;1.92;;;1.73;;
45296;SDS011;31040;51.622;10.420;2022-08-21T15:04:23;1.95;;;1.40;;
45296;SDS011;31040;51.622;10.420;2022-08-21T15:06:50;11.23;;;2.15;;
45296;SDS011;31040;51.622;10.420;2022-08-21T15:09:18;48.17;;;5.75;;
45296;SDS011;31040;51.622;10.420;2022-08-21T15:11:45;3.33;;;1.70;;
45296;SDS011;31040;51.622;10.420;2022-08-21T15:14:23;4.28;;;1.88;;
45296;SDS011;31040;51.622;10.420;2022-08-21T15:16:51;2.47;;;1.67;;
45296;SDS011;31040;51.622;10.420;2022-08-21T15:19:18;2.65;;;1.48;;
45296;SDS011;31040;51.622;10.420;2022-08-21T15:21:46;2.65;;;2.10;;
45296;SDS011;31040;51.622;10.420;2022-08-21T15:24:14;2.25;;;1.65;;
45296;SDS011;31040;51.622;10.420;2022-08-21T15:26:42;4.50;;;1.70;;
45296;SDS011;31040;51.622;10.420;2022-08-21T15:29:10;3.55;;;1.90;;
45296;SDS011;31040;51.622;10.420;2022-08-21T15:31:48;2.05;;;1.70;;
45296;SDS011;31040;51.622;10.420;2022-08-21T15:34:20;3.88;;;2.20;;
45296;SDS011;31040;51.622;10.420;2022-08-21T15:36:52;2.15;;;1.95;;
45296;SDS011;31040;51.622;10.420;2022-08-21T15:39:23;2.03;;;1.65;;
45296;SDS011;31040;51.622;10.420;2022-08-21T15:41:56;3.53;;;1.80;;
45296;SDS011;31040;51.622;10.420;2022-08-21T15:44:24;2.65;;;1.70;;
45296;SDS011;31040;51.622;10.420;2022-08-21T15:46:52;2.83;;;1.75;;
45296;SDS011;31040;51.622;10.420;2022-08-21T15:49:20;1.90;;;1.50;;
45296;SDS011;31040;51.622;10.420;2022-08-21T15:51:48;3.78;;;2.10;;
45296;SDS011;31040;51.622;10.420;2022-08-21T15:54:15;4.20;;;1.73;;
45296;SDS011;31040;51.622;10.420;2022-08-21T15:56:44;2.80;;;1.75;;
45296;SDS011;31040;51.622;10.420;2022-08-21T15:59:15;2.67;;;2.00;;
45296;SDS011;31040;51.622;10.420;2022-08-21T16:01:44;3.03;;;1.90;;
45296;SDS011;31040;51.622;10.420;2022-08-21T16:04:31;1.65;;;1.55;;
45296;SDS011;31040;51.622;10.420;2022-08-21T16:06:58;4.25;;;2.10;;
45296;SDS011;31040;51.622;10.420;2022-08-21T16:09:34;2.40;;;1.77;;
45296;SDS011;31040;51.622;10.420;2022-08-21T16:12:03;1.85;;;1.75;;
45296;SDS011;31040;51.622;10.420;2022-08-21T16:14:31;2.28;;;2.08;;
45296;SDS011;31040;51.622;10.420;2022-08-21T16:16:59;3.10;;;1.83;;
45296;SDS011;31040;51.622;10.420;2022-08-21T16:19:27;6.55;;;2.30;;
45296;SDS011;31040;51.622;10.420;2022-08-21T16:21:55;4.22;;;1.90;;
45296;SDS011;31040;51.622;10.420;2022-08-21T16:24:23;3.28;;;1.55;;